HAZ2128 ZSAM-ZSHC
Flight info
| Callsign | HAZ2128 |
|---|---|
| Flight time | 1h 5m |
| Altitude | 36100 |
| Route | DOVPU5U DOVPU W643 FOC W644 ANLUD/K0863S1130 W644 LEVGU/K0859S1160 W644 AKAVO/K0863S1130 A470 UGAGO UGAGO13 |
| Aircraft | A20N/M-SDE2E3FGHIRWXY/LB1 |
Departure
| Time | 2026-05-08 11:54 |
|---|---|
| Airport | Xiamen Gaoqi International Airport (ZSAM) |
Arrival
| Time | 2026-05-08 13:00 |
|---|---|
| Airport | Hangzhou Xiaoshan International Airport (ZSHC) |
| Time | Latitude | Longitude | Altitude | Speed | Heading |
|---|---|---|---|---|---|
| 2026-05-08 10:57 | 24.54820 | 118.13920 | 71 ft | 0 kts | 77° |
| 2026-05-08 11:30 | 24.54820 | 118.13918 | 71 ft | 1 kts | 77° |
| 2026-05-08 11:30 | 24.54817 | 118.13902 | 71 ft | 2 kts | 77° |
| 2026-05-08 11:30 | 24.54813 | 118.13886 | 71 ft | 2 kts | 77° |
| 2026-05-08 11:31 | 24.54811 | 118.13873 | 71 ft | 0 kts | 77° |
| 2026-05-08 11:31 | 24.54807 | 118.13860 | 71 ft | 2 kts | 59° |
| 2026-05-08 11:31 | 24.54798 | 118.13847 | 71 ft | 2 kts | 40° |
| 2026-05-08 11:31 | 24.54785 | 118.13838 | 71 ft | 2 kts | 19° |
| 2026-05-08 11:32 | 24.54769 | 118.13835 | 71 ft | 2 kts | 357° |
| 2026-05-08 11:32 | 24.54754 | 118.13838 | 71 ft | 2 kts | 336° |
| 2026-05-08 11:32 | 24.54746 | 118.13843 | 71 ft | 1 kts | 324° |
| 2026-05-08 11:32 | 24.54741 | 118.13847 | 71 ft | 0 kts | 322° |
| 2026-05-08 11:35 | 24.54742 | 118.13847 | 70 ft | 0 kts | 323° |
| 2026-05-08 11:35 | 24.54753 | 118.13837 | 70 ft | 2 kts | 324° |
| 2026-05-08 11:35 | 24.54771 | 118.13824 | 70 ft | 3 kts | 323° |
| 2026-05-08 11:35 | 24.54793 | 118.13805 | 70 ft | 4 kts | 324° |
| 2026-05-08 11:36 | 24.54822 | 118.13782 | 70 ft | 5 kts | 322° |
| 2026-05-08 11:36 | 24.54857 | 118.13753 | 71 ft | 6 kts | 317° |
| 2026-05-08 11:36 | 24.54869 | 118.13702 | 70 ft | 8 kts | 250° |
| 2026-05-08 11:36 | 24.54834 | 118.13644 | 71 ft | 9 kts | 231° |
| 2026-05-08 11:37 | 24.54786 | 118.13578 | 71 ft | 11 kts | 232° |
| 2026-05-08 11:37 | 24.54734 | 118.13504 | 71 ft | 13 kts | 232° |
| 2026-05-08 11:37 | 24.54675 | 118.13420 | 71 ft | 14 kts | 232° |
| 2026-05-08 11:37 | 24.54612 | 118.13332 | 71 ft | 15 kts | 232° |
| 2026-05-08 11:38 | 24.54545 | 118.13238 | 71 ft | 15 kts | 231° |
| 2026-05-08 11:38 | 24.54473 | 118.13141 | 71 ft | 16 kts | 231° |
| 2026-05-08 11:38 | 24.54399 | 118.13040 | 71 ft | 17 kts | 231° |
| 2026-05-08 11:38 | 24.54327 | 118.12933 | 71 ft | 17 kts | 232° |
| 2026-05-08 11:39 | 24.54250 | 118.12828 | 71 ft | 14 kts | 232° |
| 2026-05-08 11:39 | 24.54168 | 118.12814 | 71 ft | 13 kts | 142° |
| 2026-05-08 11:39 | 24.54057 | 118.12885 | 71 ft | 13 kts | 144° |
| 2026-05-08 11:39 | 24.54030 | 118.12908 | 71 ft | 3 kts | 143° |
| 2026-05-08 11:40 | 24.54028 | 118.12910 | 71 ft | 0 kts | 143° |
| 2026-05-08 11:44 | 24.54035 | 118.12904 | 71 ft | 2 kts | 143° |
| 2026-05-08 11:44 | 24.54048 | 118.12894 | 71 ft | 2 kts | 158° |
| 2026-05-08 11:45 | 24.54067 | 118.12889 | 71 ft | 2 kts | 176° |
| 2026-05-08 11:45 | 24.54077 | 118.12889 | 71 ft | 2 kts | 185° |
| 2026-05-08 11:45 | 24.54092 | 118.12892 | 71 ft | 2 kts | 200° |
| 2026-05-08 11:45 | 24.54106 | 118.12899 | 71 ft | 2 kts | 214° |
| 2026-05-08 11:46 | 24.54118 | 118.12910 | 71 ft | 2 kts | 229° |
| 2026-05-08 11:46 | 24.54123 | 118.12917 | 71 ft | 1 kts | 237° |
| 2026-05-08 11:46 | 24.54124 | 118.12920 | 71 ft | 0 kts | 235° |
| 2026-05-08 11:48 | 24.54124 | 118.12919 | 71 ft | 0 kts | 235° |
| 2026-05-08 11:48 | 24.54118 | 118.12908 | 71 ft | 2 kts | 245° |
| 2026-05-08 11:48 | 24.54115 | 118.12878 | 71 ft | 4 kts | 282° |
| 2026-05-08 11:48 | 24.54133 | 118.12837 | 71 ft | 6 kts | 316° |
| 2026-05-08 11:49 | 24.54175 | 118.12807 | 71 ft | 7 kts | 323° |
| 2026-05-08 11:49 | 24.54194 | 118.12755 | 71 ft | 8 kts | 253° |
| 2026-05-08 11:49 | 24.54146 | 118.12681 | 71 ft | 16 kts | 232° |
| 2026-05-08 11:49 | 24.54062 | 118.12563 | 71 ft | 22 kts | 232° |
| 2026-05-08 11:50 | 24.53965 | 118.12430 | 71 ft | 22 kts | 232° |
| 2026-05-08 11:50 | 24.53869 | 118.12293 | 71 ft | 22 kts | 232° |
| 2026-05-08 11:50 | 24.53774 | 118.12160 | 71 ft | 22 kts | 231° |
| 2026-05-08 11:50 | 24.53680 | 118.12031 | 71 ft | 20 kts | 232° |
| 2026-05-08 11:51 | 24.53593 | 118.11909 | 71 ft | 20 kts | 232° |
| 2026-05-08 11:51 | 24.53503 | 118.11784 | 71 ft | 20 kts | 232° |
| 2026-05-08 11:51 | 24.53465 | 118.11674 | 71 ft | 13 kts | 317° |
| 2026-05-08 11:51 | 24.53494 | 118.11649 | 71 ft | 0 kts | 322° |
| 2026-05-08 11:52 | 24.53495 | 118.11648 | 71 ft | 0 kts | 322° |
| 2026-05-08 11:52 | 24.53511 | 118.11634 | 71 ft | 4 kts | 323° |
| 2026-05-08 11:52 | 24.53538 | 118.11613 | 71 ft | 5 kts | 324° |
| 2026-05-08 11:52 | 24.53572 | 118.11600 | 71 ft | 5 kts | 21° |
| 2026-05-08 11:53 | 24.53604 | 118.11630 | 71 ft | 6 kts | 52° |
| 2026-05-08 11:53 | 24.53608 | 118.11636 | 71 ft | 1 kts | 52° |
| 2026-05-08 11:53 | 24.53615 | 118.11646 | 71 ft | 2 kts | 52° |
| 2026-05-08 11:53 | 24.53682 | 118.11739 | 71 ft | 38 kts | 54° |
| 2026-05-08 11:54 | 24.54007 | 118.12195 | 71 ft | 108 kts | 52° |
| 2026-05-08 11:54 | 24.54597 | 118.13020 | 105 ft | 157 kts | 52° |
| 2026-05-08 11:54 | 24.55278 | 118.13987 | 751 ft | 155 kts | 54° |
| 2026-05-08 11:54 | 24.55906 | 118.14886 | 1597 ft | 145 kts | 52° |
| 2026-05-08 11:55 | 24.56524 | 118.15745 | 2245 ft | 149 kts | 52° |
| 2026-05-08 11:55 | 24.57208 | 118.16698 | 2707 ft | 165 kts | 53° |
| 2026-05-08 11:55 | 24.57955 | 118.17741 | 3098 ft | 182 kts | 53° |
| 2026-05-08 11:55 | 24.58789 | 118.18913 | 3481 ft | 201 kts | 53° |
| 2026-05-08 11:56 | 24.59689 | 118.20174 | 3792 ft | 221 kts | 52° |
| 2026-05-08 11:56 | 24.60692 | 118.21561 | 3893 ft | 230 kts | 49° |
| 2026-05-08 11:56 | 24.61863 | 118.22788 | 3890 ft | 232 kts | 39° |
| 2026-05-08 11:56 | 24.63244 | 118.23801 | 3898 ft | 233 kts | 32° |
| 2026-05-08 11:57 | 24.64654 | 118.24713 | 3911 ft | 235 kts | 31° |
| 2026-05-08 11:57 | 24.66101 | 118.25637 | 4255 ft | 247 kts | 31° |
| 2026-05-08 11:57 | 24.67644 | 118.26627 | 4885 ft | 260 kts | 31° |
| 2026-05-08 11:57 | 24.69250 | 118.27660 | 5726 ft | 267 kts | 31° |
| 2026-05-08 11:58 | 24.70879 | 118.28710 | 6546 ft | 274 kts | 30° |
| 2026-05-08 11:58 | 24.72540 | 118.29784 | 7393 ft | 279 kts | 30° |
| 2026-05-08 11:58 | 24.74236 | 118.30881 | 8226 ft | 284 kts | 29° |
| 2026-05-08 11:59 | 24.77703 | 118.33124 | 9776 ft | 293 kts | 28° |
| 2026-05-08 11:59 | 24.79477 | 118.34269 | 10502 ft | 299 kts | 28° |
| 2026-05-08 11:59 | 24.81347 | 118.35474 | 10937 ft | 315 kts | 28° |
| 2026-05-08 11:59 | 24.83304 | 118.36738 | 11280 ft | 333 kts | 27° |
| 2026-05-08 12:00 | 24.85365 | 118.38071 | 11590 ft | 351 kts | 27° |
| 2026-05-08 12:00 | 24.87534 | 118.39477 | 11887 ft | 369 kts | 27° |
| 2026-05-08 12:00 | 24.89800 | 118.40945 | 12253 ft | 382 kts | 28° |
| 2026-05-08 12:00 | 24.92053 | 118.42569 | 12812 ft | 390 kts | 33° |
| 2026-05-08 12:01 | 24.94204 | 118.44489 | 13411 ft | 396 kts | 39° |
| 2026-05-08 12:01 | 24.96227 | 118.46674 | 13990 ft | 403 kts | 43° |
| 2026-05-08 12:01 | 24.98164 | 118.48905 | 14553 ft | 407 kts | 44° |
| 2026-05-08 12:01 | 25.00150 | 118.51221 | 15131 ft | 411 kts | 44° |
| 2026-05-08 12:02 | 25.02138 | 118.53529 | 15714 ft | 414 kts | 44° |
| 2026-05-08 12:02 | 25.04153 | 118.55855 | 16260 ft | 418 kts | 44° |
| 2026-05-08 12:02 | 25.06176 | 118.58184 | 16788 ft | 421 kts | 43° |
| 2026-05-08 12:02 | 25.08165 | 118.60627 | 17286 ft | 427 kts | 48° |
| 2026-05-08 12:03 | 25.09925 | 118.63245 | 17659 ft | 432 kts | 54° |
| 2026-05-08 12:03 | 25.11523 | 118.66182 | 17784 ft | 434 kts | 59° |
| 2026-05-08 12:03 | 25.12951 | 118.69123 | 17778 ft | 435 kts | 61° |
| 2026-05-08 12:03 | 25.14365 | 118.72105 | 17785 ft | 435 kts | 61° |
| 2026-05-08 12:04 | 25.15792 | 118.75111 | 17784 ft | 435 kts | 60° |
| 2026-05-08 12:04 | 25.17201 | 118.78061 | 17881 ft | 440 kts | 60° |
| 2026-05-08 12:04 | 25.18657 | 118.81091 | 18411 ft | 442 kts | 60° |
| 2026-05-08 12:04 | 25.20104 | 118.84100 | 18945 ft | 443 kts | 60° |
| 2026-05-08 12:05 | 25.21570 | 118.87142 | 19413 ft | 446 kts | 60° |
| 2026-05-08 12:05 | 25.23025 | 118.90161 | 19861 ft | 449 kts | 59° |
| 2026-05-08 12:05 | 25.24497 | 118.93210 | 20311 ft | 452 kts | 58° |
| 2026-05-08 12:05 | 25.26174 | 118.96248 | 20750 ft | 453 kts | 53° |
| 2026-05-08 12:06 | 25.28063 | 118.99036 | 21190 ft | 453 kts | 47° |
| 2026-05-08 12:06 | 25.30177 | 119.01646 | 21601 ft | 454 kts | 43° |
| 2026-05-08 12:06 | 25.32389 | 119.04215 | 22007 ft | 457 kts | 42° |
| 2026-05-08 12:06 | 25.34595 | 119.06747 | 22410 ft | 460 kts | 42° |
| 2026-05-08 12:07 | 25.36844 | 119.09335 | 22827 ft | 462 kts | 42° |
| 2026-05-08 12:07 | 25.39113 | 119.11958 | 23218 ft | 465 kts | 42° |
| 2026-05-08 12:07 | 25.41345 | 119.14554 | 23592 ft | 468 kts | 42° |
| 2026-05-08 12:07 | 25.43634 | 119.17221 | 23972 ft | 471 kts | 42° |
| 2026-05-08 12:08 | 25.45909 | 119.19876 | 24371 ft | 474 kts | 42° |
| 2026-05-08 12:08 | 25.48197 | 119.22549 | 24758 ft | 476 kts | 42° |
| 2026-05-08 12:08 | 25.50514 | 119.25258 | 25129 ft | 479 kts | 42° |
| 2026-05-08 12:08 | 25.52805 | 119.27936 | 25470 ft | 482 kts | 42° |
| 2026-05-08 12:09 | 25.55154 | 119.30690 | 25824 ft | 485 kts | 42° |
| 2026-05-08 12:09 | 25.57495 | 119.33447 | 26149 ft | 488 kts | 42° |
| 2026-05-08 12:09 | 25.59851 | 119.36231 | 26478 ft | 491 kts | 42° |
| 2026-05-08 12:09 | 25.62200 | 119.39010 | 26802 ft | 493 kts | 42° |
| 2026-05-08 12:10 | 25.64544 | 119.41788 | 27127 ft | 495 kts | 42° |
| 2026-05-08 12:10 | 25.66935 | 119.44620 | 27430 ft | 497 kts | 41° |
| 2026-05-08 12:10 | 25.69307 | 119.47430 | 27741 ft | 499 kts | 41° |
| 2026-05-08 12:10 | 25.71727 | 119.50300 | 28030 ft | 501 kts | 41° |
| 2026-05-08 12:11 | 25.74128 | 119.53128 | 28393 ft | 499 kts | 40° |
| 2026-05-08 12:11 | 25.76683 | 119.55758 | 28820 ft | 493 kts | 34° |
| 2026-05-08 12:11 | 25.79433 | 119.58081 | 29231 ft | 487 kts | 28° |
| 2026-05-08 12:11 | 25.82280 | 119.60032 | 29603 ft | 481 kts | 22° |
| 2026-05-08 12:12 | 25.85282 | 119.61787 | 29987 ft | 478 kts | 20° |
| 2026-05-08 12:12 | 25.88258 | 119.63455 | 30388 ft | 477 kts | 19° |
| 2026-05-08 12:12 | 25.91232 | 119.65121 | 30790 ft | 476 kts | 20° |
| 2026-05-08 12:12 | 25.94210 | 119.66788 | 31167 ft | 475 kts | 19° |
| 2026-05-08 12:13 | 25.97204 | 119.68464 | 31517 ft | 474 kts | 19° |
| 2026-05-08 12:13 | 26.00169 | 119.70100 | 31862 ft | 471 kts | 17° |
| 2026-05-08 12:13 | 26.03206 | 119.71513 | 32188 ft | 466 kts | 12° |
| 2026-05-08 12:13 | 26.06284 | 119.72617 | 32500 ft | 459 kts | 7° |
| 2026-05-08 12:14 | 26.09376 | 119.73415 | 32835 ft | 453 kts | 2° |
| 2026-05-08 12:14 | 26.12509 | 119.73925 | 33112 ft | 448 kts | 357° |
| 2026-05-08 12:14 | 26.17849 | 119.74127 | 33218 ft | 438 kts | 349° |
| 2026-05-08 12:15 | 26.23928 | 119.73760 | 33241 ft | 435 kts | 348° |
| 2026-05-08 12:15 | 26.30036 | 119.73353 | 33245 ft | 435 kts | 348° |
| 2026-05-08 12:16 | 26.36093 | 119.72965 | 33244 ft | 435 kts | 348° |
| 2026-05-08 12:16 | 26.42195 | 119.72579 | 33247 ft | 434 kts | 348° |
| 2026-05-08 12:17 | 26.48265 | 119.72320 | 33243 ft | 439 kts | 352° |
| 2026-05-08 12:17 | 26.54419 | 119.72430 | 33252 ft | 439 kts | 352° |
| 2026-05-08 12:18 | 26.60573 | 119.72568 | 33250 ft | 439 kts | 352° |
| 2026-05-08 12:18 | 26.65781 | 119.72684 | 33243 ft | 438 kts | 352° |
| 2026-05-08 12:19 | 26.71934 | 119.72816 | 33244 ft | 438 kts | 352° |
| 2026-05-08 12:19 | 26.78039 | 119.72947 | 33247 ft | 438 kts | 352° |
| 2026-05-08 12:20 | 26.84199 | 119.73077 | 33245 ft | 438 kts | 352° |
| 2026-05-08 12:20 | 26.90310 | 119.73205 | 33252 ft | 437 kts | 351° |
| 2026-05-08 12:21 | 26.96337 | 119.72650 | 33255 ft | 425 kts | 341° |
| 2026-05-08 12:21 | 27.02000 | 119.71014 | 33247 ft | 414 kts | 333° |
| 2026-05-08 12:22 | 27.07257 | 119.68394 | 33246 ft | 405 kts | 324° |
| 2026-05-08 12:22 | 27.12117 | 119.65151 | 33251 ft | 402 kts | 322° |
| 2026-05-08 12:23 | 27.16920 | 119.61855 | 33249 ft | 402 kts | 321° |
| 2026-05-08 12:23 | 27.21951 | 119.58919 | 33250 ft | 409 kts | 329° |
| 2026-05-08 12:24 | 27.27409 | 119.56860 | 33252 ft | 417 kts | 337° |
| 2026-05-08 12:24 | 27.33261 | 119.55767 | 33254 ft | 428 kts | 346° |
| 2026-05-08 12:25 | 27.39290 | 119.55595 | 33256 ft | 434 kts | 350° |
| 2026-05-08 12:25 | 27.45355 | 119.55615 | 33258 ft | 434 kts | 351° |
| 2026-05-08 12:26 | 27.51432 | 119.55656 | 33258 ft | 435 kts | 350° |
| 2026-05-08 12:26 | 27.57530 | 119.55693 | 33259 ft | 434 kts | 351° |
| 2026-05-08 12:27 | 27.63577 | 119.55728 | 33260 ft | 433 kts | 350° |
| 2026-05-08 12:27 | 27.69680 | 119.55765 | 33089 ft | 434 kts | 350° |
| 2026-05-08 12:28 | 27.72687 | 119.55781 | 32699 ft | 433 kts | 350° |
| 2026-05-08 12:28 | 27.75733 | 119.55796 | 32333 ft | 434 kts | 351° |
| 2026-05-08 12:28 | 27.78784 | 119.55811 | 31969 ft | 436 kts | 351° |
| 2026-05-08 12:28 | 27.81839 | 119.55827 | 31608 ft | 438 kts | 351° |
| 2026-05-08 12:29 | 27.84898 | 119.55843 | 31245 ft | 441 kts | 351° |
| 2026-05-08 12:29 | 27.88021 | 119.55859 | 30881 ft | 443 kts | 352° |
| 2026-05-08 12:29 | 27.91114 | 119.55878 | 30520 ft | 446 kts | 352° |
| 2026-05-08 12:29 | 27.94250 | 119.55906 | 30164 ft | 449 kts | 352° |
| 2026-05-08 12:30 | 27.97388 | 119.55953 | 29806 ft | 451 kts | 353° |
| 2026-05-08 12:30 | 28.00541 | 119.56007 | 29446 ft | 454 kts | 353° |
| 2026-05-08 12:30 | 28.03740 | 119.56060 | 29081 ft | 457 kts | 353° |
| 2026-05-08 12:30 | 28.06935 | 119.56111 | 28707 ft | 459 kts | 353° |
| 2026-05-08 12:31 | 28.10173 | 119.56175 | 28326 ft | 462 kts | 355° |
| 2026-05-08 12:31 | 28.13420 | 119.56325 | 27946 ft | 466 kts | 356° |
| 2026-05-08 12:31 | 28.16711 | 119.56506 | 27565 ft | 465 kts | 356° |
| 2026-05-08 12:31 | 28.19961 | 119.56693 | 27188 ft | 463 kts | 356° |
| 2026-05-08 12:32 | 28.23176 | 119.56877 | 26846 ft | 461 kts | 356° |
| 2026-05-08 12:32 | 28.26392 | 119.57059 | 26784 ft | 461 kts | 356° |
| 2026-05-08 12:32 | 28.29622 | 119.57240 | 26777 ft | 461 kts | 356° |
| 2026-05-08 12:32 | 28.32860 | 119.57420 | 26780 ft | 462 kts | 356° |
| 2026-05-08 12:33 | 28.36059 | 119.57598 | 26782 ft | 461 kts | 356° |
| 2026-05-08 12:33 | 28.39292 | 119.57777 | 26783 ft | 461 kts | 356° |
| 2026-05-08 12:33 | 28.42530 | 119.57957 | 26783 ft | 462 kts | 356° |
| 2026-05-08 12:33 | 28.45744 | 119.58136 | 26784 ft | 463 kts | 356° |
| 2026-05-08 12:34 | 28.48967 | 119.58326 | 26788 ft | 462 kts | 356° |
| 2026-05-08 12:34 | 28.52231 | 119.58527 | 26791 ft | 463 kts | 356° |
| 2026-05-08 12:34 | 28.55472 | 119.58728 | 26790 ft | 463 kts | 356° |
| 2026-05-08 12:34 | 28.58691 | 119.58929 | 26791 ft | 463 kts | 356° |
| 2026-05-08 12:35 | 28.61927 | 119.59131 | 26788 ft | 462 kts | 356° |
| 2026-05-08 12:35 | 28.65183 | 119.59334 | 26630 ft | 462 kts | 356° |
| 2026-05-08 12:35 | 28.68404 | 119.59533 | 26256 ft | 459 kts | 356° |
| 2026-05-08 12:35 | 28.71597 | 119.59731 | 25883 ft | 457 kts | 356° |
| 2026-05-08 12:36 | 28.74818 | 119.59930 | 25508 ft | 454 kts | 356° |
| 2026-05-08 12:36 | 28.77940 | 119.60125 | 25136 ft | 451 kts | 357° |
| 2026-05-08 12:36 | 28.81106 | 119.60321 | 24767 ft | 449 kts | 356° |
| 2026-05-08 12:36 | 28.84225 | 119.60514 | 24399 ft | 447 kts | 357° |
| 2026-05-08 12:37 | 28.87362 | 119.60708 | 24028 ft | 444 kts | 357° |
| 2026-05-08 12:37 | 28.90432 | 119.60899 | 23679 ft | 442 kts | 357° |
| 2026-05-08 12:37 | 28.93485 | 119.61089 | 23330 ft | 440 kts | 357° |
| 2026-05-08 12:37 | 28.96588 | 119.61283 | 22972 ft | 438 kts | 357° |
| 2026-05-08 12:38 | 28.99621 | 119.61472 | 22620 ft | 436 kts | 358° |
| 2026-05-08 12:38 | 29.02646 | 119.61661 | 22282 ft | 433 kts | 358° |
| 2026-05-08 12:38 | 29.05650 | 119.61848 | 21939 ft | 431 kts | 358° |
| 2026-05-08 12:38 | 29.08659 | 119.62035 | 21590 ft | 429 kts | 358° |
| 2026-05-08 12:39 | 29.11697 | 119.62223 | 21242 ft | 427 kts | 358° |
| 2026-05-08 12:39 | 29.14636 | 119.62404 | 20958 ft | 424 kts | 358° |
| 2026-05-08 12:39 | 29.17617 | 119.62585 | 20908 ft | 424 kts | 358° |
| 2026-05-08 12:39 | 29.20608 | 119.62766 | 20907 ft | 425 kts | 358° |
| 2026-05-08 12:40 | 29.23566 | 119.62946 | 20904 ft | 424 kts | 358° |
| 2026-05-08 12:40 | 29.26550 | 119.63129 | 20905 ft | 424 kts | 358° |
| 2026-05-08 12:40 | 29.29512 | 119.63309 | 20905 ft | 424 kts | 358° |
| 2026-05-08 12:40 | 29.32464 | 119.63490 | 20897 ft | 423 kts | 358° |
| 2026-05-08 12:41 | 29.35420 | 119.63673 | 20547 ft | 421 kts | 358° |
| 2026-05-08 12:41 | 29.38368 | 119.63851 | 19651 ft | 427 kts | 358° |
| 2026-05-08 12:41 | 29.41353 | 119.64027 | 18757 ft | 430 kts | 358° |
| 2026-05-08 12:41 | 29.44317 | 119.64208 | 18070 ft | 428 kts | 358° |
| 2026-05-08 12:42 | 29.47300 | 119.64392 | 17431 ft | 424 kts | 359° |
| 2026-05-08 12:42 | 29.50277 | 119.64577 | 16800 ft | 421 kts | 359° |
| 2026-05-08 12:42 | 29.53169 | 119.64754 | 16208 ft | 416 kts | 359° |
| 2026-05-08 12:42 | 29.56064 | 119.64917 | 15626 ft | 410 kts | 359° |
| 2026-05-08 12:43 | 29.58901 | 119.64996 | 15175 ft | 401 kts | 358° |
| 2026-05-08 12:43 | 29.61676 | 119.65054 | 14999 ft | 386 kts | 358° |
| 2026-05-08 12:43 | 29.64374 | 119.65173 | 14998 ft | 386 kts | 360° |
| 2026-05-08 12:43 | 29.67036 | 119.65349 | 14882 ft | 382 kts | 0° |
| 2026-05-08 12:44 | 29.69719 | 119.65535 | 14179 ft | 384 kts | 1° |
| 2026-05-08 12:44 | 29.72397 | 119.65717 | 13335 ft | 387 kts | 1° |
| 2026-05-08 12:44 | 29.75074 | 119.65904 | 12757 ft | 382 kts | 2° |
| 2026-05-08 12:44 | 29.77727 | 119.66081 | 12268 ft | 374 kts | 1° |
| 2026-05-08 12:45 | 29.80332 | 119.66217 | 11848 ft | 366 kts | 1° |
| 2026-05-08 12:45 | 29.82878 | 119.66345 | 11429 ft | 357 kts | 2° |
| 2026-05-08 12:45 | 29.85277 | 119.66904 | 11010 ft | 352 kts | 23° |
| 2026-05-08 12:45 | 29.87234 | 119.68606 | 10600 ft | 348 kts | 49° |
| 2026-05-08 12:46 | 29.88483 | 119.70972 | 10211 ft | 343 kts | 62° |
| 2026-05-08 12:46 | 29.89514 | 119.73420 | 9887 ft | 335 kts | 62° |
| 2026-05-08 12:46 | 29.90559 | 119.75748 | 9784 ft | 319 kts | 60° |
| 2026-05-08 12:46 | 29.91625 | 119.77937 | 9775 ft | 301 kts | 58° |
| 2026-05-08 12:47 | 29.92667 | 119.79980 | 9779 ft | 287 kts | 58° |
| 2026-05-08 12:47 | 29.93702 | 119.81963 | 9779 ft | 285 kts | 57° |
| 2026-05-08 12:47 | 29.94706 | 119.83862 | 9773 ft | 270 kts | 57° |
| 2026-05-08 12:47 | 29.95678 | 119.85689 | 9769 ft | 255 kts | 57° |
| 2026-05-08 12:48 | 29.96586 | 119.87400 | 9764 ft | 240 kts | 57° |
| 2026-05-08 12:48 | 29.97428 | 119.88992 | 9760 ft | 225 kts | 56° |
| 2026-05-08 12:48 | 29.98236 | 119.90512 | 9770 ft | 220 kts | 57° |
| 2026-05-08 12:48 | 29.99037 | 119.92015 | 9762 ft | 219 kts | 57° |
| 2026-05-08 12:49 | 29.99834 | 119.93520 | 9534 ft | 217 kts | 57° |
| 2026-05-08 12:49 | 30.00628 | 119.95021 | 9216 ft | 218 kts | 57° |
| 2026-05-08 12:49 | 30.01419 | 119.96516 | 8928 ft | 216 kts | 58° |
| 2026-05-08 12:49 | 30.02199 | 119.97995 | 8651 ft | 214 kts | 57° |
| 2026-05-08 12:50 | 30.03057 | 119.99423 | 8376 ft | 212 kts | 54° |
| 2026-05-08 12:50 | 30.03866 | 120.00832 | 8103 ft | 210 kts | 58° |
| 2026-05-08 12:50 | 30.04627 | 120.02299 | 7815 ft | 209 kts | 60° |
| 2026-05-08 12:50 | 30.05348 | 120.03756 | 7550 ft | 207 kts | 61° |
| 2026-05-08 12:51 | 30.06034 | 120.05192 | 7297 ft | 204 kts | 62° |
| 2026-05-08 12:51 | 30.07366 | 120.08088 | 6760 ft | 201 kts | 63° |
| 2026-05-08 12:51 | 30.08009 | 120.09523 | 6485 ft | 199 kts | 64° |
| 2026-05-08 12:52 | 30.08637 | 120.10943 | 6215 ft | 198 kts | 64° |
| 2026-05-08 12:52 | 30.09855 | 120.13719 | 5837 ft | 182 kts | 65° |
| 2026-05-08 12:52 | 30.10421 | 120.15017 | 5502 ft | 175 kts | 65° |
| 2026-05-08 12:53 | 30.10962 | 120.16256 | 5129 ft | 169 kts | 65° |
| 2026-05-08 12:53 | 30.11487 | 120.17459 | 4821 ft | 161 kts | 65° |
| 2026-05-08 12:53 | 30.11979 | 120.18587 | 4498 ft | 155 kts | 65° |
| 2026-05-08 12:53 | 30.12463 | 120.19694 | 4183 ft | 149 kts | 65° |
| 2026-05-08 12:54 | 30.12916 | 120.20727 | 3968 ft | 142 kts | 64° |
| 2026-05-08 12:54 | 30.13365 | 120.21751 | 3783 ft | 140 kts | 65° |
| 2026-05-08 12:54 | 30.13809 | 120.22763 | 3591 ft | 140 kts | 65° |
| 2026-05-08 12:54 | 30.14251 | 120.23767 | 3401 ft | 139 kts | 65° |
| 2026-05-08 12:55 | 30.14694 | 120.24773 | 3218 ft | 139 kts | 65° |
| 2026-05-08 12:55 | 30.15134 | 120.25771 | 3029 ft | 138 kts | 65° |
| 2026-05-08 12:55 | 30.15572 | 120.26763 | 2841 ft | 138 kts | 64° |
| 2026-05-08 12:55 | 30.16013 | 120.27761 | 2653 ft | 137 kts | 64° |
| 2026-05-08 12:56 | 30.16450 | 120.28747 | 2473 ft | 137 kts | 65° |
| 2026-05-08 12:56 | 30.16883 | 120.29727 | 2292 ft | 137 kts | 65° |
| 2026-05-08 12:56 | 30.17317 | 120.30711 | 2107 ft | 136 kts | 65° |
| 2026-05-08 12:56 | 30.17749 | 120.31686 | 1927 ft | 136 kts | 65° |
| 2026-05-08 12:57 | 30.18181 | 120.32662 | 1749 ft | 135 kts | 65° |
| 2026-05-08 12:57 | 30.18617 | 120.33645 | 1565 ft | 135 kts | 65° |
| 2026-05-08 12:57 | 30.19041 | 120.34604 | 1392 ft | 135 kts | 66° |
| 2026-05-08 12:57 | 30.19467 | 120.35569 | 1212 ft | 134 kts | 65° |
| 2026-05-08 12:58 | 30.19896 | 120.36542 | 1034 ft | 134 kts | 64° |
| 2026-05-08 12:58 | 30.20312 | 120.37490 | 843 ft | 134 kts | 65° |
| 2026-05-08 12:58 | 30.20746 | 120.38461 | 646 ft | 133 kts | 64° |
| 2026-05-08 12:58 | 30.21168 | 120.39403 | 516 ft | 133 kts | 63° |
| 2026-05-08 12:59 | 30.21598 | 120.40366 | 312 ft | 132 kts | 65° |
| 2026-05-08 12:59 | 30.22018 | 120.41323 | 158 ft | 130 kts | 65° |
| 2026-05-08 12:59 | 30.22431 | 120.42257 | 41 ft | 129 kts | 64° |
| 2026-05-08 12:59 | 30.22777 | 120.43049 | 35 ft | 85 kts | 62° |
| 2026-05-08 13:00 | 30.22971 | 120.43489 | 37 ft | 35 kts | 63° |
| 2026-05-08 13:00 | 30.23061 | 120.43639 | 38 ft | 20 kts | 43° |
| 2026-05-08 13:00 | 30.23168 | 120.43732 | 38 ft | 12 kts | 34° |
| 2026-05-08 13:00 | 30.23180 | 120.43742 | 38 ft | 0 kts | 34° |
| 2026-05-08 13:01 | 30.23182 | 120.43743 | 38 ft | 1 kts | 34° |
| 2026-05-08 13:01 | 30.23199 | 120.43757 | 38 ft | 6 kts | 34° |
| 2026-05-08 13:01 | 30.23252 | 120.43799 | 38 ft | 10 kts | 34° |
| 2026-05-08 13:01 | 30.23308 | 120.43847 | 38 ft | 10 kts | 38° |
| 2026-05-08 13:02 | 30.23351 | 120.43916 | 36 ft | 11 kts | 65° |
| 2026-05-08 13:02 | 30.23393 | 120.44007 | 35 ft | 13 kts | 62° |
| 2026-05-08 13:02 | 30.23432 | 120.44096 | 35 ft | 9 kts | 63° |
| 2026-05-08 13:02 | 30.23449 | 120.44134 | 36 ft | 0 kts | 63° |
| 2026-05-08 13:03 | 30.23451 | 120.44138 | 36 ft | 0 kts | 63° |
| 2026-05-08 13:03 | 30.23466 | 120.44171 | 37 ft | 9 kts | 62° |
| 2026-05-08 13:03 | 30.23517 | 120.44203 | 38 ft | 9 kts | 342° |
| 2026-05-08 13:04 | 30.23583 | 120.44168 | 38 ft | 10 kts | 335° |
| 2026-05-08 13:04 | 30.23619 | 120.44147 | 38 ft | 1 kts | 332° |
| 2026-05-08 13:04 | 30.23637 | 120.44136 | 38 ft | 3 kts | 332° |
| 2026-05-08 13:04 | 30.23641 | 120.44133 | 38 ft | 0 kts | 332° |
| 2026-05-08 13:05 | 30.23644 | 120.44130 | 38 ft | 1 kts | 316° |
| 2026-05-08 13:05 | 30.23644 | 120.44119 | 38 ft | 2 kts | 256° |
| 2026-05-08 13:05 | 30.23636 | 120.44093 | 38 ft | 4 kts | 247° |
| 2026-05-08 13:05 | 30.23631 | 120.44078 | 38 ft | 1 kts | 248° |
| 2026-05-08 13:06 | 30.23632 | 120.44074 | 38 ft | 0 kts | 312° |
| 2026-05-08 13:06 | 30.23648 | 120.44064 | 38 ft | 4 kts | 333° |
| 2026-05-08 13:06 | 30.23695 | 120.44038 | 38 ft | 9 kts | 333° |
| 2026-05-08 13:06 | 30.23758 | 120.44001 | 38 ft | 10 kts | 333° |
| 2026-05-08 13:07 | 30.23819 | 120.43966 | 37 ft | 3 kts | 332° |
| 2026-05-08 13:07 | 30.23851 | 120.43946 | 37 ft | 6 kts | 332° |
| 2026-05-08 13:07 | 30.23899 | 120.43916 | 36 ft | 9 kts | 332° |
| 2026-05-08 13:07 | 30.23964 | 120.43877 | 35 ft | 11 kts | 332° |
| 2026-05-08 13:08 | 30.24042 | 120.43831 | 35 ft | 12 kts | 332° |
| 2026-05-08 13:08 | 30.24130 | 120.43784 | 35 ft | 14 kts | 335° |
| 2026-05-08 13:08 | 30.24220 | 120.43731 | 35 ft | 14 kts | 331° |
| 2026-05-08 13:08 | 30.24315 | 120.43675 | 35 ft | 15 kts | 336° |
| 2026-05-08 13:09 | 30.24410 | 120.43638 | 35 ft | 14 kts | 333° |
| 2026-05-08 13:09 | 30.24504 | 120.43584 | 35 ft | 15 kts | 332° |
| 2026-05-08 13:09 | 30.24549 | 120.43555 | 35 ft | 0 kts | 332° |
| 2026-05-08 13:09 | 30.24552 | 120.43554 | 35 ft | 0 kts | 332° |
| 2026-05-08 13:10 | 30.24563 | 120.43547 | 35 ft | 4 kts | 332° |
| 2026-05-08 13:10 | 30.24592 | 120.43528 | 35 ft | 5 kts | 321° |
| 2026-05-08 13:10 | 30.24608 | 120.43486 | 35 ft | 5 kts | 263° |
| 2026-05-08 13:10 | 30.24590 | 120.43434 | 35 ft | 7 kts | 244° |
| 2026-05-08 13:11 | 30.24563 | 120.43372 | 35 ft | 9 kts | 242° |
| 2026-05-08 13:11 | 30.24530 | 120.43301 | 35 ft | 10 kts | 242° |
| 2026-05-08 13:11 | 30.24475 | 120.43178 | 35 ft | 21 kts | 245° |
| 2026-05-08 13:11 | 30.24410 | 120.43028 | 37 ft | 19 kts | 243° |
| 2026-05-08 13:12 | 30.24348 | 120.42887 | 38 ft | 19 kts | 242° |
| 2026-05-08 13:12 | 30.24285 | 120.42758 | 38 ft | 17 kts | 242° |
| 2026-05-08 13:12 | 30.24235 | 120.42675 | 38 ft | 11 kts | 201° |
| 2026-05-08 13:12 | 30.24181 | 120.42686 | 38 ft | 6 kts | 163° |
| 2026-05-08 13:13 | 30.24153 | 120.42696 | 38 ft | 4 kts | 160° |
| 2026-05-08 13:13 | 30.24142 | 120.42700 | 38 ft | 2 kts | 161° |
| 2026-05-08 13:13 | 30.24140 | 120.42701 | 38 ft | 0 kts | 161° |